createdAt,value
2023-03-27T00:00:21.550Z,1005.01
2023-03-27T00:00:52.849Z,1005.11
2023-03-27T00:01:24.101Z,1005.11
2023-03-27T00:01:56.945Z,1005.32
2023-03-27T00:02:28.272Z,1005.32
2023-03-27T00:03:00.940Z,1005.32
2023-03-27T00:03:32.192Z,1005.32
2023-03-27T00:04:05.013Z,1005.11
2023-03-27T00:04:36.015Z,1005.11
2023-03-27T00:05:09.121Z,1005.11
2023-03-27T00:05:40.152Z,1005.32
2023-03-27T00:06:13.090Z,1005.32
2023-03-27T00:06:43.973Z,1005.32
2023-03-27T00:07:16.868Z,1005.32
2023-03-27T00:07:48.124Z,1005.21
2023-03-27T00:08:20.808Z,1005.21
2023-03-27T00:08:52.046Z,1005.01
2023-03-27T00:09:24.749Z,1005.01
2023-03-27T00:09:56.122Z,1005.21
2023-03-27T00:10:28.995Z,1005.21
2023-03-27T00:11:00.105Z,1005.32
2023-03-27T00:11:32.873Z,1005.32
2023-03-27T00:12:03.966Z,1005.32
2023-03-27T00:12:37.659Z,1005.32
2023-03-27T00:13:08.219Z,1005.21
2023-03-27T00:13:49.107Z,1005.21
2023-03-27T00:14:12.013Z,1005.21
2023-03-27T00:14:44.782Z,1005.21
2023-03-27T00:15:17.015Z,1005.21
2023-03-27T00:15:48.910Z,1005.21
2023-03-27T00:16:20.197Z,1005.21
2023-03-27T00:16:53.066Z,1005.32
2023-03-27T00:17:24.093Z,1005.32
2023-03-27T00:17:56.883Z,1005.21
2023-03-27T00:18:28.095Z,1005.21
2023-03-27T00:19:00.872Z,1005.21
2023-03-27T00:19:31.993Z,1005.21
2023-03-27T00:20:04.950Z,1005.21
2023-03-27T00:20:36.117Z,1005.21
2023-03-27T00:21:08.742Z,1005.01
2023-03-27T00:21:39.973Z,1005.32
2023-03-27T00:22:12.799Z,1005.32
2023-03-27T00:22:44.135Z,1005.32
2023-03-27T00:23:17.079Z,1005.32
2023-03-27T00:23:48.088Z,1005.32
2023-03-27T00:24:20.858Z,1005.32
2023-03-27T00:24:51.998Z,1005.11
2023-03-27T00:25:25.082Z,1005.11
2023-03-27T00:25:56.119Z,1005.21
2023-03-27T00:26:28.860Z,1005.21
2023-03-27T00:26:59.964Z,1005.11
2023-03-27T00:27:32.881Z,1005.11
2023-03-27T00:28:04.140Z,1005.21
2023-03-27T00:28:36.866Z,1005.21
2023-03-27T00:29:08.214Z,1005.11
2023-03-27T00:29:43.762Z,1005.42
2023-03-27T00:30:13.091Z,1005.42
2023-03-27T00:30:44.838Z,1005.11
2023-03-27T00:31:16.074Z,1005.11
2023-03-27T00:31:48.948Z,1005.32
2023-03-27T00:32:20.052Z,1005.32
2023-03-27T00:32:52.779Z,1005.32
2023-03-27T00:33:24.061Z,1005.32
2023-03-27T00:33:56.996Z,1005.11
2023-03-27T00:34:27.981Z,1005.11
2023-03-27T00:35:05.151Z,1005.21
2023-03-27T00:35:32.176Z,1005.21
2023-03-27T00:36:03.999Z,1005.42
2023-03-27T00:36:37.086Z,1005.42
2023-03-27T00:37:08.101Z,1005.32
2023-03-27T00:37:43.992Z,1005.52
2023-03-27T00:38:12.005Z,1005.52
2023-03-27T00:38:45.066Z,1005.32
2023-03-27T00:39:16.151Z,1005.32
2023-03-27T00:39:48.775Z,1005.32
2023-03-27T00:40:20.381Z,1005.32
2023-03-27T00:40:52.902Z,1005.42
2023-03-27T00:41:24.326Z,1005.42
2023-03-27T00:41:56.787Z,1005.32
2023-03-27T00:42:28.118Z,1005.32
2023-03-27T00:43:03.049Z,1005.32
2023-03-27T00:43:31.992Z,1005.32
2023-03-27T00:44:04.781Z,1005.42
2023-03-27T00:44:38.585Z,1005.42
2023-03-27T00:45:09.844Z,1005.11
2023-03-27T00:45:40.133Z,1005.42
2023-03-27T00:46:13.142Z,1005.42
2023-03-27T00:46:44.311Z,1005.21
2023-03-27T00:47:16.906Z,1005.21
2023-03-27T00:47:48.290Z,1005.32
2023-03-27T00:48:20.806Z,1005.32
2023-03-27T00:48:52.208Z,1005.32
2023-03-27T00:49:24.798Z,1005.32
2023-03-27T00:49:56.087Z,1005.62
2023-03-27T00:50:29.256Z,1005.62
2023-03-27T00:51:00.028Z,1005.52
2023-03-27T00:51:32.713Z,1005.52
2023-03-27T00:52:04.135Z,1005.32
2023-03-27T00:52:36.847Z,1005.32
2023-03-27T00:53:08.045Z,1005.52
2023-03-27T00:53:24.169Z,1005.52
2023-03-27T00:53:56.022Z,1005.42
2023-03-27T00:54:28.107Z,1005.42
2023-03-27T00:55:00.140Z,1005.32
2023-03-27T00:55:32.374Z,1005.32
2023-03-27T00:56:04.839Z,1005.42
2023-03-27T00:56:36.208Z,1005.42
2023-03-27T00:57:08.913Z,1005.42
2023-03-27T00:57:40.043Z,1005.62
2023-03-27T00:58:13.883Z,1005.62
2023-03-27T00:58:44.108Z,1005.62
2023-03-27T00:59:16.777Z,1005.62
2023-03-27T00:59:48.047Z,1005.52
2023-03-27T01:00:22.046Z,1005.52
2023-03-27T01:00:51.936Z,1005.52
2023-03-27T01:01:25.065Z,1005.52
2023-03-27T01:01:56.183Z,1005.52
2023-03-27T01:02:29.067Z,1005.52
2023-03-27T01:03:00.933Z,1005.52
2023-03-27T01:03:32.848Z,1005.52
2023-03-27T01:04:04.209Z,1005.42
2023-03-27T01:04:36.796Z,1005.42
2023-03-27T01:05:08.291Z,1005.62
2023-03-27T01:05:48.706Z,1005.62
2023-03-27T01:06:11.949Z,1005.62
2023-03-27T01:06:44.017Z,1005.32
2023-03-27T01:07:18.660Z,1005.32
2023-03-27T01:08:00.228Z,1005.42
2023-03-27T01:08:20.772Z,1005.42
2023-03-27T01:08:52.008Z,1005.52
2023-03-27T01:09:24.893Z,1005.52
2023-03-27T01:09:56.274Z,1005.42
2023-03-27T01:10:29.088Z,1005.42
2023-03-27T01:11:00.144Z,1005.52
2023-03-27T01:11:32.893Z,1005.52
2023-03-27T01:12:04.014Z,1005.42
2023-03-27T01:12:40.437Z,1005.42
2023-03-27T01:13:08.129Z,1005.52
2023-03-27T01:13:40.758Z,1005.42
2023-03-27T01:14:12.063Z,1005.42
2023-03-27T01:14:44.861Z,1005.62
2023-03-27T01:15:16.895Z,1005.62
2023-03-27T01:15:49.071Z,1005.32
2023-03-27T01:16:20.050Z,1005.32
2023-03-27T01:16:55.870Z,1005.62
2023-03-27T01:17:24.237Z,1005.62
2023-03-27T01:17:56.960Z,1005.72
2023-03-27T01:18:28.146Z,1005.72
2023-03-27T01:19:01.682Z,1005.62
2023-03-27T01:19:32.103Z,1005.62
2023-03-27T01:20:05.162Z,1005.52
2023-03-27T01:20:36.112Z,1005.52
2023-03-27T01:21:08.816Z,1005.72
2023-03-27T01:21:40.014Z,1005.72
2023-03-27T01:22:13.188Z,1005.72
2023-03-27T01:22:44.048Z,1005.72
2023-03-27T01:23:17.191Z,1005.72
2023-03-27T01:23:58.972Z,1005.62
2023-03-27T01:24:20.991Z,1005.62
2023-03-27T01:24:51.992Z,1005.72
2023-03-27T01:25:25.197Z,1005.72
2023-03-27T01:25:56.222Z,1005.72
2023-03-27T01:26:35.694Z,1005.72
2023-03-27T01:27:00.059Z,1005.72
2023-03-27T01:27:33.096Z,1005.72
2023-03-27T01:28:03.902Z,1005.72
2023-03-27T01:28:36.852Z,1005.72
2023-03-27T01:29:08.122Z,1005.72
2023-03-27T01:29:43.734Z,1005.62
2023-03-27T01:30:13.032Z,1005.62
2023-03-27T01:30:45.310Z,1005.82
2023-03-27T01:31:16.343Z,1005.82
2023-03-27T01:31:49.124Z,1005.93
2023-03-27T01:32:20.180Z,1005.93
2023-03-27T01:32:53.181Z,1005.72
2023-03-27T01:33:24.339Z,1005.72
2023-03-27T01:33:57.892Z,1006.03
2023-03-27T01:34:28.274Z,1006.03
2023-03-27T01:35:03.239Z,1006.03
2023-03-27T01:35:32.319Z,1006.03
2023-03-27T01:36:08.011Z,1005.93
2023-03-27T01:36:36.305Z,1005.93
2023-03-27T01:37:09.007Z,1005.82
2023-03-27T01:37:40.079Z,1006.13
2023-03-27T01:38:13.081Z,1006.13
2023-03-27T01:38:44.244Z,1006.23
2023-03-27T01:39:16.943Z,1006.23
2023-03-27T01:39:48.029Z,1005.93
2023-03-27T01:40:24.250Z,1005.93
2023-03-27T01:40:51.994Z,1006.13
2023-03-27T01:41:24.838Z,1006.13
2023-03-27T01:41:56.115Z,1005.82
2023-03-27T01:42:29.128Z,1005.82
2023-03-27T01:43:00.120Z,1006.23
2023-03-27T01:43:33.672Z,1006.23
2023-03-27T01:44:04.126Z,1006.13
2023-03-27T01:44:44.634Z,1006.13
2023-03-27T01:45:09.058Z,1006.03
2023-03-27T01:45:41.024Z,1006.03
2023-03-27T01:46:12.390Z,1006.03
2023-03-27T01:46:46.035Z,1006.13
2023-03-27T01:47:16.205Z,1006.13
2023-03-27T01:47:49.514Z,1006.13
2023-03-27T01:48:20.214Z,1006.13
2023-03-27T01:48:52.934Z,1006.23
2023-03-27T01:49:24.290Z,1006.23
2023-03-27T01:49:57.254Z,1006.33
2023-03-27T01:50:28.539Z,1006.33
2023-03-27T01:51:01.098Z,1006.13
2023-03-27T01:51:32.278Z,1006.13
2023-03-27T01:52:05.229Z,1006.23
2023-03-27T01:52:36.255Z,1006.23
2023-03-27T01:53:12.097Z,1006.33
2023-03-27T01:53:40.305Z,1006.43
2023-03-27T01:54:12.993Z,1006.43
2023-03-27T01:54:44.185Z,1006.53
2023-03-27T01:55:17.556Z,1006.53
2023-03-27T01:55:48.124Z,1006.53
2023-03-27T01:56:26.163Z,1006.53
2023-03-27T01:56:52.144Z,1006.53
2023-03-27T01:57:24.098Z,1006.53
2023-03-27T01:57:57.152Z,1006.43
2023-03-27T01:58:28.252Z,1006.43
2023-03-27T01:59:01.354Z,1006.43
2023-03-27T01:59:32.069Z,1006.43
2023-03-27T02:00:18.597Z,1006.64
2023-03-27T02:00:51.432Z,1006.64
2023-03-27T02:01:09.119Z,1006.23
2023-03-27T02:01:40.151Z,1006.53
2023-03-27T02:02:13.342Z,1006.53
2023-03-27T02:02:44.187Z,1006.53
2023-03-27T02:03:16.897Z,1006.53
2023-03-27T02:03:48.067Z,1006.64
2023-03-27T02:04:20.959Z,1006.64
2023-03-27T02:04:51.971Z,1006.64
2023-03-27T02:05:25.479Z,1006.64
2023-03-27T02:05:56.136Z,1006.84
2023-03-27T02:06:28.802Z,1006.84
2023-03-27T02:07:00.102Z,1006.64
2023-03-27T02:07:32.926Z,1006.64
2023-03-27T02:08:04.207Z,1006.53
2023-03-27T02:08:36.995Z,1006.53
2023-03-27T02:09:08.224Z,1006.74
2023-03-27T02:09:56.455Z,1006.74
2023-03-27T02:10:28.638Z,1006.74
2023-03-27T02:11:00.110Z,1006.74
2023-03-27T02:11:37.058Z,1006.74
2023-03-27T02:12:04.166Z,1006.84
2023-03-27T02:12:36.367Z,1006.84
2023-03-27T02:13:08.125Z,1006.94
2023-03-27T02:13:40.245Z,1006.84
2023-03-27T02:14:12.340Z,1006.84
2023-03-27T02:14:44.343Z,1006.84
2023-03-27T02:15:22.601Z,1006.84
2023-03-27T02:15:48.488Z,1006.74
2023-03-27T02:16:20.344Z,1006.74
2023-03-27T02:16:52.195Z,1006.64
2023-03-27T02:17:25.325Z,1006.64
2023-03-27T02:17:56.199Z,1007.01
2023-03-27T02:18:29.131Z,1007.01
2023-03-27T02:19:00.168Z,1006.84
2023-03-27T02:19:39.760Z,1006.84
2023-03-27T02:20:04.488Z,1007.01
2023-03-27T02:20:36.024Z,1007.01
2023-03-27T02:21:08.744Z,1007.01
2023-03-27T02:21:40.166Z,1006.94
2023-03-27T02:22:13.119Z,1006.94
2023-03-27T02:22:44.098Z,1007.01
2023-03-27T02:23:17.214Z,1007.01
2023-03-27T02:23:48.187Z,1007.01
2023-03-27T02:24:21.805Z,1007.01
2023-03-27T02:24:52.121Z,1007.21
2023-03-27T02:25:25.608Z,1007.21
2023-03-27T02:25:56.079Z,1007.31
2023-03-27T02:26:28.927Z,1007.31
2023-03-27T02:27:00.268Z,1007.21
2023-03-27T02:27:36.181Z,1007.21
2023-03-27T02:28:04.030Z,1007.01
2023-03-27T02:28:36.906Z,1007.01
2023-03-27T02:29:08.165Z,1006.94
2023-03-27T02:29:44.728Z,1007.31
2023-03-27T02:30:13.059Z,1007.31
2023-03-27T02:30:44.254Z,1007.42
2023-03-27T02:31:33.681Z,1007.42
2023-03-27T02:31:48.033Z,1007.21
2023-03-27T02:32:20.190Z,1007.21
2023-03-27T02:32:52.209Z,1007.31
2023-03-27T02:33:24.079Z,1007.31
2023-03-27T02:33:56.113Z,1007.42
2023-03-27T02:34:28.239Z,1007.42
2023-03-27T02:35:00.035Z,1007.21
2023-03-27T02:35:33.202Z,1007.21
2023-03-27T02:36:04.196Z,1007.31
2023-03-27T02:36:37.105Z,1007.31
2023-03-27T02:37:08.060Z,1007.52
2023-03-27T02:37:41.039Z,1007.31
2023-03-27T02:38:12.221Z,1007.31
2023-03-27T02:38:44.779Z,1007.52
2023-03-27T02:39:16.077Z,1007.52
2023-03-27T02:39:48.869Z,1007.62
2023-03-27T02:40:20.438Z,1007.62
2023-03-27T02:40:53.182Z,1007.72
2023-03-27T02:41:24.352Z,1007.72
2023-03-27T02:41:57.251Z,1007.52
2023-03-27T02:42:28.140Z,1007.52
2023-03-27T02:43:01.308Z,1007.62
2023-03-27T02:43:32.297Z,1007.62
2023-03-27T02:44:05.018Z,1007.62
2023-03-27T02:44:36.216Z,1007.62
2023-03-27T02:45:11.071Z,1007.82
2023-03-27T02:45:40.554Z,1007.62
2023-03-27T02:46:13.009Z,1007.62
2023-03-27T02:46:44.227Z,1007.72
2023-03-27T02:47:18.675Z,1007.72
2023-03-27T02:47:48.559Z,1007.72
2023-03-27T02:48:20.891Z,1007.72
2023-03-27T02:48:52.310Z,1007.62
2023-03-27T02:49:25.157Z,1007.62
2023-03-27T02:49:56.074Z,1007.72
2023-03-27T02:50:29.194Z,1007.72
2023-03-27T02:51:00.139Z,1007.62
2023-03-27T02:51:32.944Z,1007.62
2023-03-27T02:52:04.113Z,1007.82
2023-03-27T02:52:39.007Z,1007.82
2023-03-27T02:53:08.164Z,1008.02
2023-03-27T02:53:40.861Z,1007.82
2023-03-27T02:54:12.025Z,1007.82
2023-03-27T02:54:44.929Z,1007.92
2023-03-27T02:55:16.360Z,1007.92
2023-03-27T02:55:49.838Z,1007.82
2023-03-27T02:56:20.139Z,1007.82
2023-03-27T02:56:53.028Z,1007.92
2023-03-27T02:57:25.270Z,1007.92
2023-03-27T02:57:57.042Z,1008.02
2023-03-27T02:58:28.196Z,1008.02
2023-03-27T02:59:06.063Z,1008.02
2023-03-27T02:59:32.208Z,1008.02
2023-03-27T03:00:05.687Z,1007.92
2023-03-27T03:00:36.145Z,1007.92
2023-03-27T03:01:08.207Z,1007.92
2023-03-27T03:01:40.952Z,1008.23
2023-03-27T03:02:12.276Z,1008.23
2023-03-27T03:02:46.165Z,1008.33
2023-03-27T03:03:16.191Z,1008.33
2023-03-27T03:03:51.854Z,1007.92
2023-03-27T03:04:20.209Z,1007.92
2023-03-27T03:04:53.610Z,1008.23
2023-03-27T03:05:24.496Z,1008.23
2023-03-27T03:05:57.202Z,1008.23
2023-03-27T03:06:28.054Z,1008.23
2023-03-27T03:07:00.977Z,1008.23
2023-03-27T03:07:32.177Z,1008.23
2023-03-27T03:08:06.033Z,1008.02
2023-03-27T03:08:36.032Z,1008.02
2023-03-27T03:09:09.006Z,1008.13
2023-03-27T03:09:41.106Z,1008.23
2023-03-27T03:10:13.188Z,1008.23
2023-03-27T03:10:44.171Z,1008.23
2023-03-27T03:11:16.966Z,1008.23
2023-03-27T03:11:48.053Z,1008.23
2023-03-27T03:12:20.917Z,1008.23
2023-03-27T03:12:52.144Z,1008.13
2023-03-27T03:13:24.987Z,1008.13
2023-03-27T03:13:56.149Z,1008.13
2023-03-27T03:14:28.909Z,1008.13
2023-03-27T03:15:00.190Z,1008.33
2023-03-27T03:15:33.956Z,1008.33
2023-03-27T03:16:04.129Z,1008.43
2023-03-27T03:16:37.258Z,1008.43
2023-03-27T03:17:08.114Z,1008.33
2023-03-27T03:17:41.006Z,1008.33
2023-03-27T03:18:12.121Z,1008.33
2023-03-27T03:18:44.872Z,1008.43
2023-03-27T03:19:16.201Z,1008.43
2023-03-27T03:19:49.107Z,1008.63
2023-03-27T03:20:20.512Z,1008.63
2023-03-27T03:20:53.120Z,1008.63
2023-03-27T03:21:24.146Z,1008.63
2023-03-27T03:21:56.883Z,1008.53
2023-03-27T03:22:28.231Z,1008.53
2023-03-27T03:23:10.641Z,1008.33
2023-03-27T03:23:32.130Z,1008.33
2023-03-27T03:24:04.181Z,1008.84
2023-03-27T03:24:37.186Z,1008.84
2023-03-27T03:25:08.419Z,1008.74
2023-03-27T03:25:24.265Z,1008.74
2023-03-27T03:25:56.490Z,1008.63
2023-03-27T03:26:28.219Z,1008.63
2023-03-27T03:27:00.300Z,1008.84
2023-03-27T03:27:32.144Z,1008.84
2023-03-27T03:28:05.053Z,1008.84
2023-03-27T03:28:36.226Z,1008.84
2023-03-27T03:29:10.461Z,1008.84
2023-03-27T03:29:40.074Z,1008.94
2023-03-27T03:30:16.629Z,1008.94
2023-03-27T03:30:44.506Z,1009.04
2023-03-27T03:31:17.122Z,1009.04
2023-03-27T03:31:48.169Z,1009.04
2023-03-27T03:32:21.971Z,1009.04
2023-03-27T03:32:52.082Z,1009.04
2023-03-27T03:33:24.961Z,1009.04
2023-03-27T03:33:56.238Z,1008.74
2023-03-27T03:34:29.132Z,1008.74
2023-03-27T03:35:00.532Z,1008.84
2023-03-27T03:35:39.848Z,1008.84
2023-03-27T03:36:04.326Z,1009.11
2023-03-27T03:36:36.102Z,1009.11
2023-03-27T03:37:08.837Z,1008.94
2023-03-27T03:37:40.149Z,1008.94
2023-03-27T03:38:13.293Z,1008.94
2023-03-27T03:38:44.203Z,1009.21
2023-03-27T03:39:16.809Z,1009.21
2023-03-27T03:39:48.199Z,1009.04
2023-03-27T03:40:36.518Z,1009.04
2023-03-27T03:41:08.268Z,1009.04
2023-03-27T03:41:40.079Z,1009.31
2023-03-27T03:42:22.848Z,1009.31
2023-03-27T03:42:44.368Z,1009.04
2023-03-27T03:43:17.071Z,1009.04
2023-03-27T03:43:48.161Z,1009.31
2023-03-27T03:44:21.161Z,1009.31
2023-03-27T03:44:52.358Z,1009.21
2023-03-27T03:45:26.002Z,1009.21
2023-03-27T03:45:56.418Z,1009.21
2023-03-27T03:46:44.495Z,1009.21
2023-03-27T03:47:16.152Z,1009.21
2023-03-27T03:47:48.249Z,1009.31
2023-03-27T03:48:21.029Z,1009.31
2023-03-27T03:48:52.263Z,1009.41
2023-03-27T03:49:25.329Z,1009.41
2023-03-27T03:49:56.312Z,1009.41
2023-03-27T03:50:29.189Z,1009.41
2023-03-27T03:51:00.289Z,1009.41
2023-03-27T03:51:33.142Z,1009.41
2023-03-27T03:52:05.092Z,1009.41
2023-03-27T03:52:39.002Z,1009.41
2023-03-27T03:53:08.264Z,1009.51
2023-03-27T03:53:40.906Z,1009.51
2023-03-27T03:54:12.165Z,1009.51
2023-03-27T03:54:46.583Z,1009.62
2023-03-27T03:55:16.392Z,1009.62
2023-03-27T03:55:50.524Z,1009.62
2023-03-27T03:56:20.245Z,1009.62
2023-03-27T03:56:52.982Z,1009.62
2023-03-27T03:57:24.138Z,1009.62
2023-03-27T03:57:57.162Z,1009.51
2023-03-27T03:58:34.722Z,1009.51
2023-03-27T03:59:05.729Z,1009.72
2023-03-27T03:59:32.234Z,1009.72
2023-03-27T04:00:05.640Z,1009.41
2023-03-27T04:00:36.099Z,1009.41
2023-03-27T04:01:08.086Z,1009.92
2023-03-27T04:01:40.160Z,1009.82
2023-03-27T04:02:12.368Z,1009.82
2023-03-27T04:02:44.244Z,1009.82
2023-03-27T04:03:16.286Z,1009.82
2023-03-27T04:03:48.473Z,1009.82
2023-03-27T04:04:20.069Z,1009.82
2023-03-27T04:04:52.991Z,1009.92
2023-03-27T04:05:24.494Z,1009.92
2023-03-27T04:05:57.016Z,1010.02
2023-03-27T04:06:28.206Z,1010.02
2023-03-27T04:07:00.878Z,1009.92
2023-03-27T04:07:32.259Z,1009.92
2023-03-27T04:08:05.050Z,1010.12
2023-03-27T04:08:36.206Z,1010.12
2023-03-27T04:09:08.973Z,1010.23
2023-03-27T04:09:40.379Z,1010.23
2023-03-27T04:10:13.428Z,1010.23
2023-03-27T04:10:44.322Z,1010.23
2023-03-27T04:11:17.024Z,1010.23
2023-03-27T04:11:48.236Z,1010.33
2023-03-27T04:12:21.272Z,1010.33
2023-03-27T04:12:52.354Z,1010.12
2023-03-27T04:13:26.013Z,1010.12
2023-03-27T04:13:56.234Z,1010.12
2023-03-27T04:14:29.119Z,1010.12
2023-03-27T04:15:01.688Z,1010.12
2023-03-27T04:15:33.248Z,1010.12
2023-03-27T04:16:04.370Z,1010.23
2023-03-27T04:16:37.933Z,1010.23
2023-03-27T04:17:08.233Z,1010.43
2023-03-27T04:17:41.153Z,1010.43
2023-03-27T04:18:12.387Z,1010.43
2023-03-27T04:18:50.866Z,1010.23
2023-03-27T04:19:16.063Z,1010.23
2023-03-27T04:19:48.088Z,1010.33
2023-03-27T04:20:20.547Z,1010.33
2023-03-27T04:20:52.073Z,1010.12
2023-03-27T04:21:24.908Z,1010.12
2023-03-27T04:21:56.214Z,1010.43
2023-03-27T04:22:29.142Z,1010.43
2023-03-27T04:23:00.187Z,1010.33
2023-03-27T04:23:32.868Z,1010.33
2023-03-27T04:24:04.162Z,1010.43
2023-03-27T04:24:36.947Z,1010.43
2023-03-27T04:25:08.391Z,1010.43
2023-03-27T04:25:43.004Z,1010.33
2023-03-27T04:26:12.177Z,1010.33
2023-03-27T04:26:44.883Z,1010.53
2023-03-27T04:27:16.092Z,1010.53
2023-03-27T04:27:48.951Z,1010.53
2023-03-27T04:28:20.011Z,1010.53
2023-03-27T04:28:53.076Z,1010.73
2023-03-27T04:29:24.366Z,1010.73
2023-03-27T04:30:05.246Z,1010.53
2023-03-27T04:30:28.402Z,1010.53
2023-03-27T04:31:00.393Z,1010.63
2023-03-27T04:31:32.526Z,1010.63
2023-03-27T04:32:04.277Z,1010.94
2023-03-27T04:32:37.095Z,1010.94
2023-03-27T04:33:08.364Z,1010.73
2023-03-27T04:33:41.043Z,1010.73
2023-03-27T04:34:12.247Z,1010.73
2023-03-27T04:35:00.712Z,1010.84
2023-03-27T04:35:32.335Z,1010.84
2023-03-27T04:36:05.990Z,1010.84
2023-03-27T04:36:36.351Z,1010.84
2023-03-27T04:37:08.257Z,1010.94
2023-03-27T04:37:40.324Z,1010.63
2023-03-27T04:38:12.237Z,1010.63
2023-03-27T04:38:44.055Z,1010.73
2023-03-27T04:39:16.164Z,1010.73
2023-03-27T04:39:48.292Z,1010.73
2023-03-27T04:40:20.403Z,1010.73
2023-03-27T04:40:53.035Z,1011.14
2023-03-27T04:41:24.237Z,1011.14
2023-03-27T04:41:56.909Z,1010.94
2023-03-27T04:42:28.011Z,1010.94
2023-03-27T04:43:02.727Z,1010.94
2023-03-27T04:43:32.328Z,1010.94
2023-03-27T04:44:04.901Z,1011.14
2023-03-27T04:44:36.125Z,1011.14
2023-03-27T04:45:09.885Z,1011.04
2023-03-27T04:45:40.178Z,1010.94
2023-03-27T04:46:12.991Z,1010.94
2023-03-27T04:46:44.236Z,1011.04
2023-03-27T04:47:20.866Z,1011.04
2023-03-27T04:47:48.425Z,1010.94
2023-03-27T04:48:20.238Z,1010.94
2023-03-27T04:48:52.218Z,1011.04
2023-03-27T04:49:24.294Z,1011.04
2023-03-27T04:49:56.239Z,1011.04
2023-03-27T04:50:28.631Z,1011.04
2023-03-27T04:51:00.342Z,1011.14
2023-03-27T04:51:32.156Z,1011.14
2023-03-27T04:52:05.239Z,1010.94
2023-03-27T04:52:36.224Z,1010.94
2023-03-27T04:53:08.815Z,1011.24
2023-03-27T04:53:40.165Z,1011.24
2023-03-27T04:54:12.954Z,1011.24
2023-03-27T04:54:44.260Z,1011.31
2023-03-27T04:55:17.054Z,1011.31
2023-03-27T04:55:48.181Z,1011.41
2023-03-27T04:56:21.066Z,1011.41
2023-03-27T04:56:52.180Z,1011.24
2023-03-27T04:57:24.950Z,1011.24
2023-03-27T04:57:56.242Z,1011.31
2023-03-27T04:58:28.953Z,1011.31
2023-03-27T04:59:00.043Z,1011.24
2023-03-27T04:59:33.051Z,1011.24
2023-03-27T05:00:05.615Z,1011.41
2023-03-27T05:00:38.402Z,1011.41
2023-03-27T05:01:08.242Z,1011.24
2023-03-27T05:01:44.006Z,1011.41
2023-03-27T05:02:12.277Z,1011.41
2023-03-27T05:02:45.145Z,1011.51
2023-03-27T05:03:16.278Z,1011.51
2023-03-27T05:03:49.285Z,1011.41
2023-03-27T05:04:20.279Z,1011.41
2023-03-27T05:04:54.512Z,1011.31
2023-03-27T05:05:24.433Z,1011.31
2023-03-27T05:05:57.288Z,1011.41
2023-03-27T05:06:28.092Z,1011.41
2023-03-27T05:07:01.165Z,1011.51
2023-03-27T05:07:32.227Z,1011.51
2023-03-27T05:08:04.980Z,1011.51
2023-03-27T05:08:36.175Z,1011.51
2023-03-27T05:09:09.178Z,1011.51
2023-03-27T05:09:40.350Z,1011.51
2023-03-27T05:10:13.110Z,1011.51
2023-03-27T05:10:44.228Z,1011.61
2023-03-27T05:11:17.028Z,1011.61
2023-03-27T05:11:48.052Z,1011.41
2023-03-27T05:12:21.166Z,1011.41
2023-03-27T05:12:52.229Z,1011.82
2023-03-27T05:13:25.158Z,1011.82
2023-03-27T05:13:56.129Z,1011.51
2023-03-27T05:14:29.984Z,1011.51
2023-03-27T05:15:00.142Z,1011.92
2023-03-27T05:15:34.191Z,1011.92
2023-03-27T05:16:04.388Z,1011.82
2023-03-27T05:16:37.410Z,1011.82
2023-03-27T05:17:08.546Z,1011.61
2023-03-27T05:17:42.296Z,1011.72
2023-03-27T05:18:12.525Z,1011.72
2023-03-27T05:18:45.238Z,1011.92
2023-03-27T05:19:16.343Z,1011.92
2023-03-27T05:19:49.977Z,1011.92
2023-03-27T05:20:20.704Z,1011.92
2023-03-27T05:20:53.080Z,1011.92
2023-03-27T05:21:24.451Z,1011.92
2023-03-27T05:21:57.547Z,1011.82
2023-03-27T05:22:28.480Z,1011.82
2023-03-27T05:23:01.530Z,1011.92
2023-03-27T05:23:32.528Z,1011.92
2023-03-27T05:24:05.424Z,1012.12
2023-03-27T05:24:36.533Z,1012.12
2023-03-27T05:25:09.685Z,1011.92
2023-03-27T05:25:40.659Z,1012.02
2023-03-27T05:26:14.914Z,1012.02
2023-03-27T05:26:44.490Z,1011.92
2023-03-27T05:27:17.465Z,1011.92
2023-03-27T05:27:48.603Z,1012.22
2023-03-27T05:28:21.484Z,1012.22
2023-03-27T05:28:52.569Z,1012.12
2023-03-27T05:29:25.383Z,1012.12
2023-03-27T05:29:56.616Z,1012.12
2023-03-27T05:30:30.770Z,1012.12
2023-03-27T05:31:00.983Z,1012.12
2023-03-27T05:31:33.630Z,1012.12
2023-03-27T05:32:04.354Z,1012.12
2023-03-27T05:32:38.183Z,1012.12
2023-03-27T05:33:08.539Z,1011.92
2023-03-27T05:33:42.372Z,1012.33
2023-03-27T05:34:12.325Z,1012.33
2023-03-27T05:34:45.351Z,1012.22
2023-03-27T05:35:16.572Z,1012.22
2023-03-27T05:35:49.155Z,1012.33
2023-03-27T05:36:20.495Z,1012.33
2023-03-27T05:36:53.143Z,1012.22
2023-03-27T05:37:27.006Z,1012.22
2023-03-27T05:37:57.283Z,1012.22
2023-03-27T05:38:28.477Z,1012.22
2023-03-27T05:39:01.363Z,1012.43
2023-03-27T05:39:32.360Z,1012.43
2023-03-27T05:40:05.411Z,1012.22
2023-03-27T05:40:36.520Z,1012.22
2023-03-27T05:41:09.903Z,1012.53
2023-03-27T05:41:40.454Z,1012.53
2023-03-27T05:42:13.528Z,1012.53
2023-03-27T05:42:44.504Z,1012.63
2023-03-27T05:43:18.266Z,1012.63
2023-03-27T05:43:50.161Z,1012.43
2023-03-27T05:44:21.435Z,1012.43
2023-03-27T05:44:52.395Z,1012.63
2023-03-27T05:45:31.576Z,1012.63
2023-03-27T05:45:56.651Z,1012.63
2023-03-27T05:46:28.452Z,1012.63
2023-03-27T05:47:00.696Z,1012.43
2023-03-27T05:47:32.526Z,1012.43
2023-03-27T05:48:04.586Z,1012.63
2023-03-27T05:48:36.337Z,1012.63
2023-03-27T05:49:08.335Z,1012.63
2023-03-27T05:49:40.530Z,1012.63
2023-03-27T05:50:12.609Z,1012.63
2023-03-27T05:50:45.312Z,1012.73
2023-03-27T05:51:16.482Z,1012.73
2023-03-27T05:51:49.394Z,1012.73
2023-03-27T05:52:20.393Z,1012.73
2023-03-27T05:52:53.146Z,1012.63
2023-03-27T05:53:27.975Z,1012.63
2023-03-27T05:53:57.467Z,1012.83
2023-03-27T05:54:28.388Z,1012.83
2023-03-27T05:55:01.578Z,1012.63
2023-03-27T05:55:32.497Z,1012.63
2023-03-27T05:56:05.186Z,1013.04
2023-03-27T05:56:36.379Z,1013.04
2023-03-27T05:57:09.564Z,1012.83
2023-03-27T05:57:40.373Z,1012.63
2023-03-27T05:58:14.302Z,1012.63
2023-03-27T05:58:44.414Z,1012.93
2023-03-27T05:59:17.459Z,1012.93
2023-03-27T05:59:48.357Z,1012.93
2023-03-27T06:00:22.571Z,1012.93
2023-03-27T06:00:52.441Z,1012.73
2023-03-27T06:01:25.194Z,1012.73
2023-03-27T06:01:56.517Z,1012.93
2023-03-27T06:02:30.421Z,1012.93
2023-03-27T06:03:00.582Z,1013.04
2023-03-27T06:03:33.604Z,1013.04
2023-03-27T06:04:04.543Z,1013.04
2023-03-27T06:04:37.426Z,1013.04
2023-03-27T06:05:08.546Z,1013.24
2023-03-27T06:05:41.131Z,1013.04
2023-03-27T06:06:12.475Z,1013.04
2023-03-27T06:06:51.057Z,1013.14
2023-03-27T06:07:16.356Z,1013.14
2023-03-27T06:07:48.489Z,1013.24
2023-03-27T06:08:21.145Z,1013.24
2023-03-27T06:08:52.562Z,1013.14
2023-03-27T06:09:25.236Z,1013.14
2023-03-27T06:09:56.627Z,1012.93
2023-03-27T06:10:29.782Z,1012.93
2023-03-27T06:11:00.431Z,1013.41
2023-03-27T06:11:33.207Z,1013.41
2023-03-27T06:12:04.519Z,1013.24
2023-03-27T06:12:38.205Z,1013.24
2023-03-27T06:13:08.340Z,1013.24
2023-03-27T06:13:41.194Z,1013.34
2023-03-27T06:14:12.509Z,1013.34
2023-03-27T06:14:45.420Z,1013.34
2023-03-27T06:15:17.241Z,1013.34
2023-03-27T06:15:49.514Z,1013.41
2023-03-27T06:16:20.418Z,1013.41
2023-03-27T06:16:53.311Z,1013.24
2023-03-27T06:17:24.578Z,1013.24
2023-03-27T06:17:57.470Z,1013.51
2023-03-27T06:18:28.389Z,1013.51
2023-03-27T06:19:04.100Z,1013.51
2023-03-27T06:19:32.539Z,1013.51
2023-03-27T06:20:05.533Z,1013.51
2023-03-27T06:20:36.415Z,1013.51
2023-03-27T06:21:09.473Z,1013.61
2023-03-27T06:21:41.077Z,1013.61
2023-03-27T06:22:13.308Z,1013.61
2023-03-27T06:22:44.785Z,1013.51
2023-03-27T06:23:17.748Z,1013.51
2023-03-27T06:23:48.301Z,1013.61
2023-03-27T06:24:21.208Z,1013.61
2023-03-27T06:24:53.597Z,1013.71
2023-03-27T06:25:26.993Z,1013.71
2023-03-27T06:25:57.488Z,1013.61
2023-03-27T06:26:30.120Z,1013.61
2023-03-27T06:27:00.517Z,1013.71
2023-03-27T06:27:33.479Z,1013.71